createdAt,value
2023-05-21T00:00:15.564Z,15.29
2023-05-21T00:03:03.674Z,15.36
2023-05-21T00:05:32.711Z,15.41
2023-05-21T00:08:00.745Z,15.47
2023-05-21T00:10:28.664Z,15.51
2023-05-21T00:12:56.563Z,15.52
2023-05-21T00:15:24.632Z,15.52
2023-05-21T00:17:52.897Z,15.53
2023-05-21T00:20:20.875Z,15.53
2023-05-21T00:22:49.269Z,15.55
2023-05-21T00:25:17.257Z,15.56
2023-05-21T00:27:45.363Z,15.59
2023-05-21T00:30:13.344Z,15.61
2023-05-21T00:32:41.313Z,15.62
2023-05-21T00:35:09.504Z,15.61
2023-05-21T00:37:38.292Z,15.61
2023-05-21T00:40:08.851Z,15.63
2023-05-21T00:42:40.758Z,15.66
2023-05-21T00:45:09.346Z,15.69
2023-05-21T00:47:37.726Z,15.70
2023-05-21T00:50:06.715Z,15.70
2023-05-21T00:52:41.918Z,15.70
2023-05-21T00:55:11.139Z,15.71
2023-05-21T00:57:40.273Z,15.73
2023-05-21T01:00:09.158Z,15.74
2023-05-21T01:02:38.314Z,15.76
2023-05-21T01:05:07.327Z,15.76
2023-05-21T01:07:39.087Z,15.76
2023-05-21T01:10:09.817Z,15.77
2023-05-21T01:12:40.395Z,15.79
2023-05-21T01:15:09.149Z,15.81
2023-05-21T01:17:39.240Z,15.82
2023-05-21T01:20:11.242Z,15.82
2023-05-21T01:22:43.835Z,15.81
2023-05-21T01:25:12.295Z,15.80
2023-05-21T01:27:40.344Z,15.80
2023-05-21T01:30:08.844Z,15.82
2023-05-21T01:32:48.845Z,15.81
2023-05-21T01:35:26.312Z,15.79
2023-05-21T01:38:13.304Z,15.77
2023-05-21T01:40:55.689Z,15.76
2023-05-21T01:43:25.138Z,15.77
2023-05-21T01:45:56.012Z,15.77
2023-05-21T01:48:27.385Z,15.78
2023-05-21T01:51:01.997Z,15.76
2023-05-21T01:53:30.062Z,15.75
2023-05-21T01:55:59.437Z,15.74
2023-05-21T01:58:27.731Z,15.74
2023-05-21T02:00:57.174Z,15.74
2023-05-21T02:03:28.214Z,15.78
2023-05-21T02:05:57.011Z,15.78
2023-05-21T02:08:25.722Z,15.76
2023-05-21T02:10:53.682Z,15.75
2023-05-21T02:13:25.748Z,15.73
2023-05-21T02:15:55.240Z,15.73
2023-05-21T02:18:23.857Z,15.74
2023-05-21T02:20:51.777Z,15.76
2023-05-21T02:23:19.790Z,15.77
2023-05-21T02:25:47.781Z,15.76
2023-05-21T02:28:16.030Z,15.74
2023-05-21T02:30:44.000Z,15.71
2023-05-21T02:33:14.519Z,15.70
2023-05-21T02:35:44.103Z,15.69
2023-05-21T02:38:13.783Z,15.70
2023-05-21T02:40:42.116Z,15.68
2023-05-21T02:43:10.104Z,15.65
2023-05-21T02:45:38.491Z,15.62
2023-05-21T02:48:06.886Z,15.59
2023-05-21T02:50:37.464Z,15.55
2023-05-21T02:53:06.420Z,15.54
2023-05-21T02:55:35.466Z,15.53
2023-05-21T02:58:03.703Z,15.50
2023-05-21T03:00:31.989Z,15.45
2023-05-21T03:03:01.375Z,15.40
2023-05-21T03:05:29.390Z,15.35
2023-05-21T03:07:57.624Z,15.30
2023-05-21T03:10:25.673Z,15.27
2023-05-21T03:12:55.007Z,15.26
2023-05-21T03:15:25.986Z,15.22
2023-05-21T03:17:54.498Z,15.19
2023-05-21T03:20:24.675Z,15.15
2023-05-21T03:22:53.116Z,15.10
2023-05-21T03:25:21.783Z,15.06
2023-05-21T03:27:49.982Z,15.03
2023-05-21T03:30:38.459Z,15.00
2023-05-21T03:33:32.496Z,14.96
2023-05-21T03:36:01.292Z,14.93
2023-05-21T03:38:31.671Z,14.89
2023-05-21T03:40:59.689Z,14.87
2023-05-21T03:43:28.092Z,14.87
2023-05-21T03:45:56.491Z,14.88
2023-05-21T03:48:53.312Z,14.86
2023-05-21T03:51:22.968Z,14.84
2023-05-21T03:53:51.758Z,14.80
2023-05-21T03:56:19.798Z,14.77
2023-05-21T03:58:48.950Z,14.74
2023-05-21T04:01:17.934Z,14.76
2023-05-21T04:03:47.249Z,14.79
2023-05-21T04:06:16.085Z,14.83
2023-05-21T04:08:44.694Z,14.84
2023-05-21T04:11:12.701Z,14.83
2023-05-21T04:13:40.724Z,14.85
2023-05-21T04:16:14.747Z,14.88
2023-05-21T04:18:45.536Z,14.93
2023-05-21T04:21:14.147Z,15.01
2023-05-21T04:23:42.276Z,15.07
2023-05-21T04:26:36.586Z,15.11
2023-05-21T04:29:05.141Z,15.17
2023-05-21T04:31:33.632Z,15.21
2023-05-21T04:34:02.265Z,15.26
2023-05-21T04:36:30.601Z,15.33
2023-05-21T04:38:58.603Z,15.41
2023-05-21T04:41:26.873Z,15.46
2023-05-21T04:43:55.482Z,15.52
2023-05-21T04:46:25.424Z,15.57
2023-05-21T04:48:58.245Z,15.61
2023-05-21T04:51:26.901Z,15.66
2023-05-21T04:53:54.925Z,15.72
2023-05-21T04:56:22.976Z,15.80
2023-05-21T04:58:50.937Z,15.90
2023-05-21T05:01:19.224Z,15.99
2023-05-21T05:03:47.417Z,16.04
2023-05-21T05:06:15.523Z,16.12
2023-05-21T05:08:43.623Z,16.18
2023-05-21T05:11:12.281Z,16.24
2023-05-21T05:13:43.845Z,16.28
2023-05-21T05:16:13.090Z,16.35
2023-05-21T05:18:42.695Z,16.40
2023-05-21T05:21:11.106Z,16.46
2023-05-21T05:23:39.058Z,16.56
2023-05-21T05:26:08.514Z,16.61
2023-05-21T05:28:36.554Z,16.67
2023-05-21T05:31:04.801Z,16.72
2023-05-21T05:33:33.544Z,16.79
2023-05-21T05:36:01.641Z,16.82
2023-05-21T05:38:29.737Z,16.86
2023-05-21T05:40:57.834Z,16.92
2023-05-21T05:43:26.675Z,16.98
2023-05-21T05:45:56.543Z,17.05
2023-05-21T05:48:25.036Z,17.13
2023-05-21T05:50:55.077Z,17.21
2023-05-21T05:53:23.838Z,17.32
2023-05-21T05:55:51.883Z,17.45
2023-05-21T05:58:19.930Z,17.55
2023-05-21T06:00:54.744Z,17.65
2023-05-21T06:03:22.805Z,17.74
2023-05-21T06:05:53.718Z,17.83
2023-05-21T06:08:23.436Z,17.92
2023-05-21T06:10:51.486Z,18.01
2023-05-21T06:13:19.598Z,18.11
2023-05-21T06:15:47.694Z,18.20
2023-05-21T06:18:16.012Z,18.25
2023-05-21T06:20:44.061Z,18.33
2023-05-21T06:23:12.814Z,18.44
2023-05-21T06:25:42.594Z,18.50
2023-05-21T06:28:10.638Z,18.58
2023-05-21T06:30:39.370Z,18.70
2023-05-21T06:33:07.740Z,18.85
2023-05-21T06:35:37.589Z,18.93
2023-05-21T06:38:06.233Z,19.00
2023-05-21T06:40:34.930Z,19.07
2023-05-21T06:43:05.021Z,19.18
2023-05-21T06:45:51.754Z,19.29
2023-05-21T06:48:37.306Z,19.38
2023-05-21T06:51:05.502Z,19.45
2023-05-21T06:53:33.470Z,19.52
2023-05-21T06:56:01.786Z,19.57
2023-05-21T06:58:42.536Z,19.63
2023-05-21T07:01:12.033Z,19.67
2023-05-21T07:03:40.208Z,19.75
2023-05-21T07:06:09.362Z,19.85
2023-05-21T07:08:37.383Z,19.89
2023-05-21T07:11:05.520Z,19.95
2023-05-21T07:13:36.313Z,20.07
2023-05-21T07:16:04.921Z,20.19
2023-05-21T07:18:32.922Z,20.28
2023-05-21T07:21:01.174Z,20.36
2023-05-21T07:23:29.381Z,20.48
2023-05-21T07:25:57.401Z,20.56
2023-05-21T07:28:25.788Z,20.60
2023-05-21T07:30:53.961Z,20.63
2023-05-21T07:33:27.172Z,20.68
2023-05-21T07:35:55.315Z,20.76
2023-05-21T07:38:23.357Z,20.87
2023-05-21T07:40:51.361Z,21.02
2023-05-21T07:43:19.328Z,21.14
2023-05-21T07:45:47.429Z,21.28
2023-05-21T07:48:16.118Z,21.40
2023-05-21T07:50:53.210Z,21.48
2023-05-21T07:53:21.413Z,21.59
2023-05-21T07:55:50.540Z,21.66
2023-05-21T07:58:23.562Z,21.74
2023-05-21T08:00:51.807Z,21.82
2023-05-21T08:03:20.578Z,21.94
2023-05-21T08:05:49.307Z,22.03
2023-05-21T08:08:22.248Z,22.13
2023-05-21T08:10:53.193Z,22.20
2023-05-21T08:13:22.364Z,22.26
2023-05-21T08:15:52.860Z,22.34
2023-05-21T08:18:24.110Z,22.40
2023-05-21T08:20:52.994Z,22.46
2023-05-21T08:23:21.408Z,22.54
2023-05-21T08:25:53.747Z,22.58
2023-05-21T08:28:23.680Z,22.64
2023-05-21T08:30:52.740Z,22.71
2023-05-21T08:33:23.162Z,22.83
2023-05-21T08:35:51.643Z,22.91
2023-05-21T08:38:24.343Z,22.93
2023-05-21T08:41:01.218Z,22.98
2023-05-21T08:43:31.446Z,23.01
2023-05-21T08:46:01.012Z,23.18
2023-05-21T08:48:32.781Z,23.18
2023-05-21T08:51:01.617Z,23.24
2023-05-21T08:53:35.587Z,23.33
2023-05-21T08:56:07.037Z,23.32
2023-05-21T08:58:55.416Z,23.33
2023-05-21T09:01:28.133Z,23.42
2023-05-21T09:04:19.092Z,23.47
2023-05-21T09:06:50.532Z,23.63
2023-05-21T09:09:33.351Z,23.67
2023-05-21T09:12:01.922Z,23.65
2023-05-21T09:14:31.185Z,23.63
2023-05-21T09:17:15.459Z,23.71
2023-05-21T09:20:16.699Z,23.71
2023-05-21T09:22:55.754Z,23.71
2023-05-21T09:25:28.415Z,23.73
2023-05-21T09:27:57.422Z,23.74
2023-05-21T09:30:28.701Z,23.81
2023-05-21T09:33:00.283Z,23.91
2023-05-21T09:35:29.382Z,23.96
2023-05-21T09:38:03.664Z,24.05
2023-05-21T09:40:35.700Z,24.10
2023-05-21T09:43:05.366Z,24.09
2023-05-21T09:45:34.541Z,24.12
2023-05-21T09:48:03.587Z,24.19
2023-05-21T09:50:36.588Z,24.29
2023-05-21T09:53:12.651Z,24.27
2023-05-21T09:55:42.042Z,24.29
2023-05-21T09:58:11.271Z,24.36
2023-05-21T10:00:40.265Z,24.50
2023-05-21T10:03:10.070Z,24.65
2023-05-21T10:05:38.731Z,24.68
2023-05-21T10:08:09.292Z,24.70
2023-05-21T10:10:40.916Z,24.75
2023-05-21T10:13:11.553Z,24.84
2023-05-21T10:15:46.477Z,24.85
2023-05-21T10:18:17.130Z,24.81
2023-05-21T10:20:46.651Z,24.85
2023-05-21T10:23:14.619Z,25.06
2023-05-21T10:25:43.092Z,25.17
2023-05-21T10:28:16.235Z,25.31
2023-05-21T10:30:45.020Z,25.35
2023-05-21T10:33:16.826Z,25.43
2023-05-21T10:35:48.301Z,25.49
2023-05-21T10:38:19.385Z,25.60
2023-05-21T10:40:49.671Z,25.73
2023-05-21T10:43:35.983Z,25.84
2023-05-21T10:46:23.525Z,25.89
2023-05-21T10:49:04.841Z,25.86
2023-05-21T10:52:04.655Z,25.76
2023-05-21T10:55:06.512Z,25.66
2023-05-21T10:57:44.836Z,25.61
2023-05-21T11:00:16.375Z,25.69
2023-05-21T11:02:46.087Z,25.75
2023-05-21T11:05:14.391Z,25.78
2023-05-21T11:07:54.019Z,25.73
2023-05-21T11:10:41.628Z,25.71
2023-05-21T11:13:25.042Z,25.79
2023-05-21T11:16:05.556Z,25.75
2023-05-21T11:18:36.955Z,25.70
2023-05-21T11:21:14.034Z,25.56
2023-05-21T11:23:49.677Z,25.58
2023-05-21T11:26:26.478Z,25.69
2023-05-21T11:29:03.494Z,25.72
2023-05-21T11:31:39.738Z,25.86
2023-05-21T11:34:28.885Z,25.97
2023-05-21T11:37:25.110Z,26.09
2023-05-21T11:39:53.611Z,26.24
2023-05-21T11:42:32.711Z,26.35
2023-05-21T11:45:03.876Z,26.54
2023-05-21T11:47:32.878Z,26.65
2023-05-21T11:50:03.527Z,26.61
2023-05-21T11:52:33.071Z,26.57
2023-05-21T11:55:01.193Z,26.61
2023-05-21T11:57:32.883Z,26.72
2023-05-21T12:00:06.451Z,26.64
2023-05-21T12:03:01.307Z,26.54
2023-05-21T12:05:29.337Z,26.61
2023-05-21T12:07:58.778Z,26.71
2023-05-21T12:10:26.843Z,26.83
2023-05-21T12:12:57.260Z,26.88
2023-05-21T12:15:27.205Z,26.85
2023-05-21T12:18:01.366Z,26.74
2023-05-21T12:20:29.458Z,26.69
2023-05-21T12:22:59.080Z,26.63
2023-05-21T12:25:28.397Z,26.80
2023-05-21T12:27:58.406Z,27.04
2023-05-21T12:30:27.240Z,27.19
2023-05-21T12:32:58.492Z,27.31
2023-05-21T12:35:26.625Z,27.26
2023-05-21T12:37:54.814Z,27.23
2023-05-21T12:40:37.468Z,27.23
2023-05-21T12:43:06.198Z,27.29
2023-05-21T12:45:34.458Z,27.29
2023-05-21T12:48:05.684Z,27.26
2023-05-21T12:50:33.962Z,27.32
2023-05-21T12:53:01.966Z,27.52
2023-05-21T12:55:33.340Z,27.51
2023-05-21T12:58:10.830Z,27.39
2023-05-21T13:00:43.642Z,27.44
2023-05-21T13:03:11.780Z,27.55
2023-05-21T13:05:42.764Z,27.79
2023-05-21T13:08:11.437Z,27.87
2023-05-21T13:10:39.718Z,27.98
2023-05-21T13:13:08.380Z,28.05
2023-05-21T13:15:36.425Z,28.04
2023-05-21T13:18:04.471Z,28.14
2023-05-21T13:20:35.045Z,28.20
2023-05-21T13:23:09.824Z,28.35
2023-05-21T13:25:40.057Z,28.47
2023-05-21T13:28:15.419Z,28.45
2023-05-21T13:30:43.632Z,28.09
2023-05-21T13:33:12.403Z,27.95
2023-05-21T13:35:40.973Z,27.90
2023-05-21T13:38:09.029Z,27.90
2023-05-21T13:40:39.049Z,27.97
2023-05-21T13:43:07.714Z,27.99
2023-05-21T13:45:35.908Z,28.01
2023-05-21T13:48:04.127Z,28.11
2023-05-21T13:50:32.137Z,28.28
2023-05-21T13:53:00.236Z,28.44
2023-05-21T13:55:28.195Z,28.39
2023-05-21T13:57:56.118Z,28.44
2023-05-21T14:00:24.119Z,28.46
2023-05-21T14:02:52.495Z,28.37
2023-05-21T14:05:20.897Z,28.34
2023-05-21T14:07:48.954Z,28.25
2023-05-21T14:10:17.292Z,28.16
2023-05-21T14:12:46.166Z,28.07
2023-05-21T14:15:14.326Z,28.04
2023-05-21T14:17:42.524Z,28.20
2023-05-21T14:20:11.261Z,28.35
2023-05-21T14:22:39.313Z,28.40
2023-05-21T14:25:07.624Z,28.39
2023-05-21T14:27:38.108Z,28.44
2023-05-21T14:30:07.021Z,28.51
2023-05-21T14:32:35.087Z,28.59
2023-05-21T14:35:03.233Z,28.63
2023-05-21T14:37:31.328Z,28.70
2023-05-21T14:39:59.325Z,28.67
2023-05-21T14:42:27.311Z,28.63
2023-05-21T14:44:55.312Z,28.58
2023-05-21T14:47:26.193Z,28.54
2023-05-21T14:49:54.238Z,28.39
2023-05-21T14:52:22.236Z,28.27
2023-05-21T14:54:50.188Z,28.05
2023-05-21T14:57:18.164Z,28.00
2023-05-21T14:59:46.437Z,27.91
2023-05-21T15:02:14.675Z,27.77
2023-05-21T15:04:42.737Z,27.85
2023-05-21T15:07:10.937Z,28.05
2023-05-21T15:09:38.874Z,27.95
2023-05-21T15:12:06.989Z,27.64
2023-05-21T15:14:34.922Z,27.55
2023-05-21T15:17:03.222Z,27.55
2023-05-21T15:19:31.375Z,27.42
2023-05-21T15:22:01.072Z,27.37
2023-05-21T15:24:30.926Z,27.30
2023-05-21T15:26:58.903Z,27.48
2023-05-21T15:29:27.017Z,27.61
2023-05-21T15:31:55.038Z,27.77
2023-05-21T15:34:23.174Z,27.92
2023-05-21T15:36:51.186Z,28.03
2023-05-21T15:39:19.204Z,28.08
2023-05-21T15:41:47.163Z,28.12
2023-05-21T15:44:15.352Z,27.93
2023-05-21T15:46:43.409Z,27.72
2023-05-21T15:49:11.414Z,27.70
2023-05-21T15:51:40.452Z,27.75
2023-05-21T15:54:08.419Z,27.77
2023-05-21T15:56:36.553Z,27.74
2023-05-21T15:59:04.618Z,27.71
2023-05-21T16:01:33.395Z,27.63
2023-05-21T16:04:03.521Z,27.58
2023-05-21T16:06:31.714Z,27.70
2023-05-21T16:09:00.553Z,27.72
2023-05-21T16:11:29.478Z,27.75
2023-05-21T16:13:57.452Z,27.92
2023-05-21T16:16:25.731Z,28.06
2023-05-21T16:18:54.422Z,28.12
2023-05-21T16:21:22.471Z,28.03
2023-05-21T16:23:50.903Z,27.91
2023-05-21T16:26:18.891Z,27.89
2023-05-21T16:28:47.050Z,27.91
2023-05-21T16:31:15.196Z,27.94
2023-05-21T16:33:43.380Z,27.97
2023-05-21T16:36:11.480Z,27.97
2023-05-21T16:38:39.962Z,27.96
2023-05-21T16:41:08.024Z,27.91
2023-05-21T16:43:36.398Z,27.82
2023-05-21T16:46:04.420Z,27.61
2023-05-21T16:48:32.955Z,27.49
2023-05-21T16:51:01.145Z,27.31
2023-05-21T16:53:29.151Z,27.20
2023-05-21T16:55:57.133Z,27.10
2023-05-21T16:58:25.281Z,27.03
2023-05-21T17:00:53.331Z,26.94
2023-05-21T17:03:21.514Z,26.80
2023-05-21T17:05:49.904Z,26.71
2023-05-21T17:08:17.994Z,26.66
2023-05-21T17:10:45.966Z,26.45
2023-05-21T17:13:21.497Z,26.31
2023-05-21T17:15:51.631Z,26.20
2023-05-21T17:18:19.853Z,26.15
2023-05-21T17:20:47.920Z,26.06
2023-05-21T17:23:16.320Z,25.85
2023-05-21T17:25:45.512Z,25.73
2023-05-21T17:28:13.682Z,25.70
2023-05-21T17:30:43.301Z,25.58
2023-05-21T17:33:12.352Z,25.45
2023-05-21T17:35:40.516Z,25.27
2023-05-21T17:38:08.811Z,25.03
2023-05-21T17:40:36.979Z,24.88
2023-05-21T17:43:05.268Z,24.73
2023-05-21T17:45:33.441Z,24.54
2023-05-21T17:48:01.603Z,24.17
2023-05-21T17:50:30.030Z,23.78
2023-05-21T17:52:58.090Z,23.34
2023-05-21T17:55:26.066Z,23.09
2023-05-21T17:57:54.033Z,22.77
2023-05-21T18:00:22.314Z,22.49
2023-05-21T18:02:50.359Z,22.15
2023-05-21T18:05:18.948Z,21.87
2023-05-21T18:07:47.106Z,21.56
2023-05-21T18:10:16.092Z,21.40
2023-05-21T18:12:47.116Z,21.14
2023-05-21T18:15:15.822Z,20.93
2023-05-21T18:17:44.224Z,20.79
2023-05-21T18:20:12.970Z,20.71
2023-05-21T18:22:41.006Z,20.59
2023-05-21T18:25:09.564Z,20.49
2023-05-21T18:27:37.545Z,20.37
2023-05-21T18:30:07.015Z,20.23
2023-05-21T18:32:35.171Z,20.13
2023-05-21T18:35:03.519Z,20.03
2023-05-21T18:37:31.538Z,19.92
2023-05-21T18:39:59.551Z,19.84
2023-05-21T18:42:28.367Z,19.72
2023-05-21T18:44:56.455Z,19.62
2023-05-21T18:47:25.096Z,19.49
2023-05-21T18:49:53.109Z,19.35
2023-05-21T18:52:21.540Z,19.12
2023-05-21T18:54:49.893Z,18.95
2023-05-21T18:57:18.747Z,18.78
2023-05-21T18:59:47.528Z,18.63
2023-05-21T19:02:16.136Z,18.46
2023-05-21T19:04:44.670Z,18.35
2023-05-21T19:07:13.322Z,18.26
2023-05-21T19:09:41.844Z,18.16
2023-05-21T19:12:10.276Z,18.03
2023-05-21T19:14:39.153Z,17.92
2023-05-21T19:17:08.591Z,17.85
2023-05-21T19:19:36.734Z,17.82
2023-05-21T19:22:05.109Z,17.77
2023-05-21T19:24:33.226Z,17.68
2023-05-21T19:27:01.330Z,17.58
2023-05-21T19:29:29.308Z,17.51
2023-05-21T19:31:57.454Z,17.47
2023-05-21T19:34:26.895Z,17.38
2023-05-21T19:36:54.945Z,17.31
2023-05-21T19:39:23.420Z,17.27
2023-05-21T19:41:53.048Z,17.24
2023-05-21T19:44:21.083Z,17.17
2023-05-21T19:46:50.294Z,17.10
2023-05-21T19:49:20.087Z,17.06
2023-05-21T19:51:49.513Z,16.93
2023-05-21T19:54:18.677Z,16.99
2023-05-21T19:56:46.947Z,16.94
2023-05-21T19:59:14.928Z,16.92
2023-05-21T20:01:44.327Z,16.92
2023-05-21T20:04:13.465Z,16.91
2023-05-21T20:06:41.617Z,16.91
2023-05-21T20:09:12.090Z,16.88
2023-05-21T20:11:42.369Z,16.83
2023-05-21T20:14:10.822Z,16.76
2023-05-21T20:16:38.863Z,16.69
2023-05-21T20:19:12.667Z,16.62
2023-05-21T20:21:40.836Z,16.55
2023-05-21T20:24:08.912Z,16.48
2023-05-21T20:26:37.035Z,16.40
2023-05-21T20:29:06.618Z,16.32
2023-05-21T20:31:35.024Z,16.24
2023-05-21T20:34:07.759Z,16.16
2023-05-21T20:36:36.494Z,16.06
2023-05-21T20:39:05.131Z,15.98
2023-05-21T20:41:37.575Z,15.90
2023-05-21T20:44:06.357Z,15.81
2023-05-21T20:46:38.911Z,15.73
2023-05-21T20:49:08.101Z,15.67
2023-05-21T20:51:36.172Z,15.62
2023-05-21T20:54:04.586Z,15.58
2023-05-21T20:56:42.113Z,15.54
2023-05-21T20:59:12.314Z,15.50
2023-05-21T21:01:41.614Z,15.44
2023-05-21T21:04:10.303Z,15.40
2023-05-21T21:06:39.516Z,15.36
2023-05-21T21:09:08.615Z,15.33
2023-05-21T21:11:37.123Z,15.28
2023-05-21T21:14:05.265Z,15.22
2023-05-21T21:16:33.279Z,15.18
2023-05-21T21:19:01.396Z,15.15
2023-05-21T21:21:29.523Z,15.09
2023-05-21T21:23:57.537Z,15.04
2023-05-21T21:26:25.572Z,14.98
2023-05-21T21:28:53.500Z,14.93
2023-05-21T21:31:21.482Z,14.86
2023-05-21T21:33:49.470Z,14.80
2023-05-21T21:36:17.479Z,14.75
2023-05-21T21:38:45.406Z,14.73
2023-05-21T21:41:13.986Z,14.68
2023-05-21T21:43:42.002Z,14.63
2023-05-21T21:46:10.125Z,14.59
2023-05-21T21:48:38.121Z,14.54
2023-05-21T21:51:08.330Z,14.51
2023-05-21T21:53:36.263Z,14.48
2023-05-21T21:56:04.404Z,14.48
2023-05-21T21:58:32.336Z,14.49
2023-05-21T22:01:00.732Z,14.53
2023-05-21T22:03:32.694Z,14.57
2023-05-21T22:06:01.256Z,14.59
2023-05-21T22:08:29.394Z,14.61
2023-05-21T22:10:57.502Z,14.64
2023-05-21T22:13:27.377Z,14.67
2023-05-21T22:15:57.486Z,14.71
2023-05-21T22:18:39.590Z,14.74
2023-05-21T22:21:14.395Z,14.79
2023-05-21T22:23:42.566Z,14.82
2023-05-21T22:26:10.574Z,14.85
2023-05-21T22:28:38.535Z,14.87
2023-05-21T22:31:07.882Z,14.90
2023-05-21T22:33:36.732Z,14.90
2023-05-21T22:36:05.349Z,14.91
2023-05-21T22:38:33.405Z,14.90
2023-05-21T22:41:01.494Z,14.89
2023-05-21T22:43:29.547Z,14.88
2023-05-21T22:45:57.485Z,14.87
2023-05-21T22:48:26.439Z,14.86
2023-05-21T22:50:54.969Z,14.85
2023-05-21T22:53:23.838Z,14.83
2023-05-21T22:55:52.746Z,14.83
2023-05-21T22:58:20.689Z,14.82
2023-05-21T23:00:48.598Z,14.82
2023-05-21T23:03:16.840Z,14.81
2023-05-21T23:05:45.662Z,14.82
2023-05-21T23:08:14.145Z,14.82
2023-05-21T23:10:42.145Z,14.81
2023-05-21T23:13:10.275Z,14.79
2023-05-21T23:15:39.145Z,14.78
2023-05-21T23:18:08.768Z,14.74
2023-05-21T23:20:37.463Z,14.69
2023-05-21T23:23:06.149Z,14.65
2023-05-21T23:25:34.983Z,14.61
2023-05-21T23:28:05.832Z,14.57
2023-05-21T23:30:34.240Z,14.54
2023-05-21T23:33:02.878Z,14.50
2023-05-21T23:35:34.075Z,14.48
2023-05-21T23:38:02.541Z,14.44
2023-05-21T23:40:30.504Z,14.41
2023-05-21T23:42:58.541Z,14.38
2023-05-21T23:45:26.527Z,14.33
2023-05-21T23:47:54.506Z,14.30
2023-05-21T23:50:24.945Z,14.26
2023-05-21T23:52:52.977Z,14.21
2023-05-21T23:55:20.999Z,14.19
2023-05-21T23:57:48.969Z,14.17
